Time;durP1;ratioP1;P1;durP2;ratioP2;P2;SDS_P1;SDS_P2;PMS_P1;PMS_P2;Temp;Humidity;BMP_temperature;BMP_pressure;BME280_temperature;BME280_humidity;BME280_pressure;Samples;Min_cycle;Max_cycle;Signal;HPM_P1;HPM_P2
2022/03/19 00:03:29;;;;;;;11.15;10.05;;;;;;;;;;12607687;28;20488;-79
2022/03/19 00:09:31;;;;;;;10.05;9.07;;;;;;;;;;12594897;28;20036;-78
2022/03/19 00:15:34;;;;;;;9.07;8.25;;;;;;;;;;12596676;28;20044;-78
2022/03/19 00:21:35;;;;;;;;;;;;;;;;;;12596066;28;20064;-76
2022/03/19 00:27:37;;;;;;;8.48;7.57;;;;;;;;;;12592512;28;19908;-77
2022/03/19 00:33:38;;;;;;;6.82;6.18;;;;;;;;;;12593538;28;20035;-80
2022/03/19 00:39:40;;;;;;;8.57;7.78;;;;;;;;;;12592185;28;20485;-79
2022/03/19 00:45:42;;;;;;;8.15;7.35;;;;;;;;;;12593459;28;20043;-80
2022/03/19 00:51:43;;;;;;;9.27;8.38;;;;;;;;;;12592767;28;20493;-80
2022/03/19 00:57:46;;;;;;;8.35;7.55;;;;;;;;;;12592376;28;20397;-80
2022/03/19 01:03:48;;;;;;;9.32;8.43;;;;;;;;;;12590929;28;20045;-80
2022/03/19 01:09:49;;;;;;;7.35;6.75;;;;;;;;;;12590595;28;20393;-79
2022/03/19 01:15:51;;;;;;;10.52;9.52;;;;;;;;;;12591224;28;20048;-80
2022/03/19 01:21:53;;;;;;;9.95;9.05;;;;;;;;;;12591468;28;20393;-79
2022/03/19 01:27:55;;;;;;;12.05;10.95;;;;;;;;;;12594060;28;20048;-79
2022/03/19 01:33:57;;;;;;;10.27;9.20;;;;;;;;;;12590109;28;20028;-76
2022/03/19 01:39:59;;;;;;;9.87;8.93;;;;;;;;;;12589649;28;20040;-75
2022/03/19 01:46:01;;;;;;;9.35;8.45;;;;;;;;;;12588998;28;20059;-75
2022/03/19 01:52:03;;;;;;;9.15;8.30;;;;;;;;;;12593122;28;20035;-78
2022/03/19 01:58:04;;;;;;;9.25;8.43;;;;;;;;;;12588697;28;20039;-79
2022/03/19 02:04:08;;;;;;;9.90;8.90;;;;;;;;;;12590215;28;20037;-76
2022/03/19 02:10:11;;;;;;;9.65;8.85;;;;;;;;;;12589724;28;20404;-76
2022/03/19 02:16:12;;;;;;;9.10;8.30;;;;;;;;;;12590202;28;20056;-76
2022/03/19 02:22:14;;;;;;;9.30;8.40;;;;;;;;;;12588740;28;20492;-76
2022/03/19 02:28:16;;;;;;;8.55;7.75;;;;;;;;;;12590449;28;20041;-76
2022/03/19 02:34:19;;;;;;;8.65;7.85;;;;;;;;;;12589971;28;20512;-76
2022/03/19 02:40:21;;;;;;;9.30;8.40;;;;;;;;;;12591700;28;20040;-76
2022/03/19 02:46:36;;;;;;;11.33;10.33;;;;;;;;;;12594271;28;20036;-76
2022/03/19 02:52:37;;;;;;;10.80;9.80;;;;;;;;;;12589314;28;20028;-76
2022/03/19 02:58:39;;;;;;;10.75;9.68;;;;;;;;;;12588240;28;20409;-76
2022/03/19 03:04:41;;;;;;;10.98;9.95;;;;;;;;;;12589579;28;20106;-76
2022/03/19 03:10:42;;;;;;;11.50;10.43;;;;;;;;;;12595081;28;20041;-76
2022/03/19 03:16:44;;;;;;;10.73;9.68;;;;;;;;;;12587494;28;20024;-78
2022/03/19 03:22:46;;;;;;;9.40;8.50;;;;;;;;;;12596850;28;20040;-79
2022/03/19 03:28:48;;;;;;;10.25;9.25;;;;;;;;;;12597028;28;20036;-79
2022/03/19 03:34:49;;;;;;;10.02;9.02;;;;;;;;;;12596431;28;20044;-80
2022/03/19 03:40:51;;;;;;;10.30;9.30;;;;;;;;;;12596597;28;20032;-80
2022/03/19 03:46:53;;;;;;;10.32;9.35;;;;;;;;;;12596426;28;20528;-80
2022/03/19 03:52:56;;;;;;;10.07;9.07;;;;;;;;;;12597453;28;20037;-77
2022/03/19 03:58:57;;;;;;;;;;;;;;;;;;12595250;28;20041;-76
2022/03/19 04:04:59;;;;;;;9.80;8.88;;;;;;;;;;12594279;28;19916;-76
2022/03/19 04:11:00;;;;;;;10.55;9.68;;;;;;;;;;12595922;28;20056;-76
2022/03/19 04:17:04;;;;;;;8.80;8.00;;;;;;;;;;12597500;28;20032;-77
2022/03/19 04:23:06;;;;;;;10.90;9.80;;;;;;;;;;12594561;28;20037;-80
2022/03/19 04:29:08;;;;;;;11.00;9.95;;;;;;;;;;12594051;28;20039;-79
2022/03/19 04:41:31;;;;;;;11.77;10.57;;;;;;;;;;12593506;28;20037;-80
2022/03/19 04:47:33;;;;;;;11.13;10.10;;;;;;;;;;12593335;28;20032;-80
2022/03/19 04:53:35;;;;;;;10.32;9.32;;;;;;;;;;12593167;28;20039;-79
2022/03/19 04:59:36;;;;;;;12.57;11.38;;;;;;;;;;12591713;28;20043;-79
2022/03/19 05:05:38;;;;;;;10.55;9.45;;;;;;;;;;12591293;28;20028;-79
2022/03/19 05:11:41;;;;;;;11.43;10.30;;;;;;;;;;12591794;28;20520;-79
2022/03/19 05:17:44;;;;;;;11.30;10.15;;;;;;;;;;12590677;28;20036;-79
2022/03/19 05:23:47;;;;;;;11.90;10.70;;;;;;;;;;12590602;28;20405;-76
2022/03/19 05:29:49;;;;;;;;;;;;;;;;;;12573929;28;20033;-75
2022/03/19 05:35:50;;;;;;;13.57;12.32;;;;;;;;;;12591095;28;20001;-75
2022/03/19 05:41:52;;;;;;;12.68;11.52;;;;;;;;;;12597066;28;20029;-79
2022/03/19 05:47:54;;;;;;;12.30;11.23;;;;;;;;;;12603909;28;20020;-79
2022/03/19 05:53:55;;;;;;;12.68;11.43;;;;;;;;;;12590762;28;20044;-76
2022/03/19 05:59:57;;;;;;;13.00;11.80;;;;;;;;;;12589771;28;20040;-76
2022/03/19 06:05:59;;;;;;;11.48;10.48;;;;;;;;;;12591332;28;20044;-76
2022/03/19 06:12:01;;;;;;;14.63;13.05;;;;;;;;;;12576829;28;20061;-75
2022/03/19 06:18:02;;;;;;;16.08;14.57;;;;;;;;;;12592145;28;20358;-76
2022/03/19 06:24:05;;;;;;;13.48;12.18;;;;;;;;;;12593337;28;20044;-79
2022/03/19 06:30:08;;;;;;;12.43;11.27;;;;;;;;;;12593060;28;20392;-79
2022/03/19 06:42:30;;;;;;;12.02;10.80;;;;;;;;;;12593409;28;20060;-79
2022/03/19 06:48:31;;;;;;;15.77;14.15;;;;;;;;;;12602150;28;20507;-79
2022/03/19 06:54:33;;;;;;;18.17;16.45;;;;;;;;;;12604786;28;20064;-79
2022/03/19 07:00:35;;;;;;;16.63;14.98;;;;;;;;;;12600560;28;20036;-79
2022/03/19 07:06:37;;;;;;;16.93;15.30;;;;;;;;;;12600402;28;20040;-79
2022/03/19 07:12:49;;;;;;;18.13;16.35;;;;;;;;;;12601415;28;20059;-79
2022/03/19 07:18:51;;;;;;;15.80;14.27;;;;;;;;;;12602793;28;20037;-78
2022/03/19 07:24:53;;;;;;;17.17;15.57;;;;;;;;;;12598827;28;20043;-76
2022/03/19 07:30:55;;;;;;;15.05;13.55;;;;;;;;;;12602271;28;20033;-79
2022/03/19 07:36:57;;;;;;;19.55;17.52;;;;;;;;;;12579916;28;20031;-79
2022/03/19 07:42:58;;;;;;;17.40;15.70;;;;;;;;;;12609549;28;20040;-78
2022/03/19 07:49:01;;;;;;;24.73;22.23;;;;;;;;;;12596818;28;20342;-79
2022/03/19 07:55:03;;;;;;;17.67;15.88;;;;;;;;;;12595908;28;20039;-78
2022/03/19 08:01:04;;;;;;;14.98;13.55;;;;;;;;;;12599366;28;20039;-78
2022/03/19 08:07:07;;;;;;;15.50;13.90;;;;;;;;;;12598587;28;20040;-79
2022/03/19 08:13:09;;;;;;;14.00;12.20;;;;;;;;;;12598481;28;20371;-79
2022/03/19 08:19:11;;;;;;;12.07;10.88;;;;;;;;;;12598086;28;20032;-79
2022/03/19 08:25:13;;;;;;;12.52;11.32;;;;;;;;;;12598069;28;20048;-76
2022/03/19 08:31:14;;;;;;;12.95;11.68;;;;;;;;;;12597340;28;20024;-76
2022/03/19 08:37:16;;;;;;;11.85;10.65;;;;;;;;;;12597328;28;20043;-76
2022/03/19 08:43:18;;;;;;;10.25;9.25;;;;;;;;;;12596509;28;20055;-76
2022/03/19 08:49:20;;;;;;;13.97;12.57;;;;;;;;;;12595552;28;20496;-76
2022/03/19 08:55:22;;;;;;;13.77;12.23;;;;;;;;;;12597881;28;20035;-76
2022/03/19 09:01:24;;;;;;;12.10;10.82;;;;;;;;;;12596649;28;20041;-76
2022/03/19 09:07:25;;;;;;;13.50;12.02;;;;;;;;;;12593997;28;20032;-76
2022/03/19 09:13:27;;;;;;;12.77;11.48;;;;;;;;;;12601667;28;20059;-79
2022/03/19 09:19:29;;;;;;;11.95;10.75;;;;;;;;;;12593998;28;20028;-79
2022/03/19 09:25:30;;;;;;;12.35;11.07;;;;;;;;;;12593721;28;20410;-76
2022/03/19 09:31:32;;;;;;;10.38;9.35;;;;;;;;;;12594854;28;20519;-76
2022/03/19 09:37:34;;;;;;;10.57;9.32;;;;;;;;;;12591921;28;20040;-76
2022/03/19 09:43:37;;;;;;;14.02;12.60;;;;;;;;;;12595030;28;20469;-76
2022/03/19 09:49:38;;;;;;;13.02;11.65;;;;;;;;;;12591726;28;20036;-77
2022/03/19 09:55:41;;;;;;;14.93;13.25;;;;;;;;;;12590760;28;20371;-76
2022/03/19 10:01:42;;;;;;;11.67;10.47;;;;;;;;;;12595022;28;20040;-76
2022/03/19 10:14:09;;;;;;;13.43;11.10;;;;;;;;;;12596760;28;20056;-76
2022/03/19 10:20:12;;;;;;;10.13;9.13;;;;;;;;;;12610516;28;20040;-76
2022/03/19 10:26:22;;;;;;;11.57;10.38;;;;;;;;;;12603550;28;20043;-76
2022/03/19 10:32:28;;;;;;;9.15;8.20;;;;;;;;;;12603162;28;20044;-76
2022/03/19 10:38:29;;;;;;;10.27;9.18;;;;;;;;;;12602473;28;20029;-76
2022/03/19 10:44:31;;;;;;;8.93;8.02;;;;;;;;;;12601929;28;20052;-76
2022/03/19 10:50:33;;;;;;;9.93;8.82;;;;;;;;;;12609263;28;20044;-78
2022/03/19 10:56:34;;;;;;;10.02;8.38;;;;;;;;;;12602163;28;20036;-76
2022/03/19 11:02:39;;;;;;;10.65;9.55;;;;;;;;;;12601827;28;20040;-76
2022/03/19 11:08:45;;;;;;;9.32;8.40;;;;;;;;;;12601299;28;20504;-76
2022/03/19 11:14:47;;;;;;;10.55;9.07;;;;;;;;;;12601739;28;20064;-76
2022/03/19 11:20:50;;;;;;;9.15;8.20;;;;;;;;;;12600571;28;20032;-76
2022/03/19 11:26:52;;;;;;;10.45;8.05;;;;;;;;;;12601360;28;20044;-78
2022/03/19 11:33:06;;;;;;;9.48;7.78;;;;;;;;;;12599502;28;20070;-78
2022/03/19 11:39:08;;;;;;;9.45;8.07;;;;;;;;;;12600015;28;20043;-78
2022/03/19 11:45:10;;;;;;;8.55;7.78;;;;;;;;;;12599635;28;20048;-78
2022/03/19 11:51:32;;;;;;;7.63;6.83;;;;;;;;;;12609792;28;20412;-78
2022/03/19 11:57:46;;;;;;;10.30;9.30;;;;;;;;;;12599975;28;20029;-78
2022/03/19 12:04:10;;;;;;;9.52;7.20;;;;;;;;;;12597241;28;20032;-78
2022/03/19 12:10:15;;;;;;;8.48;7.57;;;;;;;;;;12594765;28;20040;-78
2022/03/19 12:16:37;;;;;;;7.38;6.45;;;;;;;;;;12596168;28;20528;-78
2022/03/19 12:22:40;;;;;;;6.95;6.25;;;;;;;;;;12596731;28;20040;-79
2022/03/19 12:28:42;;;;;;;7.88;7.07;;;;;;;;;;12598833;28;20409;-78
2022/03/19 12:34:45;;;;;;;11.30;10.20;;;;;;;;;;12606563;28;20034;-78
2022/03/19 12:47:08;;;;;;;8.13;7.18;;;;;;;;;;12595570;28;20282;-76
2022/03/19 12:53:09;;;;;;;9.02;6.65;;;;;;;;;;12596423;28;20039;-76
2022/03/19 12:59:38;;;;;;;8.20;7.03;;;;;;;;;;12596582;28;20040;-76
2022/03/19 13:05:50;;;;;;;7.93;7.13;;;;;;;;;;12592637;28;20210;-76
2022/03/19 13:11:53;;;;;;;6.80;6.15;;;;;;;;;;12591371;28;20055;-76
2022/03/19 13:17:54;;;;;;;8.07;7.27;;;;;;;;;;12601799;28;20032;-76
2022/03/19 13:23:58;;;;;;;6.43;5.82;;;;;;;;;;12591267;28;20405;-78
2022/03/19 13:30:02;;;;;;;8.25;7.30;;;;;;;;;;12590954;28;20036;-78
2022/03/19 13:36:09;;;;;;;6.97;6.28;;;;;;;;;;12590817;28;20596;-79
2022/03/19 13:42:19;;;;;;;10.52;6.97;;;;;;;;;;12589740;28;20040;-79
2022/03/19 13:48:23;;;;;;;9.30;7.63;;;;;;;;;;12590305;28;20037;-79
2022/03/19 13:54:41;;;;;;;7.75;6.88;;;;;;;;;;12590283;28;20036;-79
2022/03/19 14:00:43;;;;;;;7.85;7.07;;;;;;;;;;12590840;28;20055;-79
2022/03/19 14:06:45;;;;;;;6.90;6.20;;;;;;;;;;12589256;28;20503;-78
2022/03/19 14:12:47;;;;;;;6.07;4.67;;;;;;;;;;12590666;28;20524;-76
2022/03/19 14:18:51;;;;;;;5.53;5.00;;;;;;;;;;12572432;28;20068;-79
2022/03/19 14:24:53;;;;;;;5.28;4.78;;;;;;;;;;12588879;28;20033;-79
2022/03/19 14:30:56;;;;;;;4.73;4.23;;;;;;;;;;12588712;28;20044;-79
2022/03/19 14:36:57;;;;;;;4.93;4.53;;;;;;;;;;12587967;28;20477;-79
2022/03/19 14:42:59;;;;;;;5.63;5.13;;;;;;;;;;12588477;28;20040;-79
2022/03/19 14:49:01;;;;;;;4.73;4.23;;;;;;;;;;12587509;28;20032;-79
2022/03/19 14:55:03;;;;;;;4.77;3.93;;;;;;;;;;12589620;28;20436;-77
2022/03/19 15:01:05;;;;;;;3.40;3.10;;;;;;;;;;12588545;28;20389;-77
2022/03/19 15:07:07;;;;;;;4.03;3.65;;;;;;;;;;12594805;28;20043;-75
2022/03/19 15:13:12;;;;;;;4.23;3.83;;;;;;;;;;12597227;28;20056;-76
2022/03/19 15:19:14;;;;;;;3.35;3.05;;;;;;;;;;12609004;28;20043;-76
2022/03/19 15:25:16;;;;;;;4.97;4.57;;;;;;;;;;12598133;28;20525;-76
2022/03/19 15:31:19;;;;;;;4.93;4.43;;;;;;;;;;12597899;28;20036;-77
2022/03/19 15:37:21;;;;;;;4.28;3.85;;;;;;;;;;12597510;28;20032;-76
2022/03/19 15:43:25;;;;;;;4.50;4.07;;;;;;;;;;12598243;28;20048;-76
2022/03/19 15:49:27;;;;;;;5.50;4.85;;;;;;;;;;12597152;28;20397;-76
2022/03/19 15:55:29;;;;;;;4.43;4.03;;;;;;;;;;12597398;28;20482;-79
2022/03/19 16:01:30;;;;;;;4.43;4.03;;;;;;;;;;12607483;28;20507;-79
2022/03/19 16:07:32;;;;;;;5.70;4.72;;;;;;;;;;12594088;28;20049;-79
2022/03/19 16:13:34;;;;;;;4.47;4.07;;;;;;;;;;12594583;28;20053;-79
2022/03/19 16:19:36;;;;;;;4.03;3.70;;;;;;;;;;12592945;28;20032;-79
2022/03/19 16:25:37;;;;;;;4.10;3.55;;;;;;;;;;12594203;28;20044;-77
2022/03/19 16:31:39;;;;;;;3.22;2.92;;;;;;;;;;12592652;28;20032;-76
2022/03/19 16:37:41;;;;;;;6.50;5.38;;;;;;;;;;12592050;28;20035;-76
2022/03/19 16:43:43;;;;;;;4.87;3.73;;;;;;;;;;12575487;28;20060;-76
2022/03/19 16:49:47;;;;;;;4.63;4.03;;;;;;;;;;12594819;28;20028;-76
2022/03/19 16:55:50;;;;;;;4.38;3.97;;;;;;;;;;12592092;28;20033;-79
2022/03/19 17:01:52;;;;;;;3.65;3.35;;;;;;;;;;12592213;28;20489;-79
2022/03/19 17:07:54;;;;;;;4.00;3.40;;;;;;;;;;12591982;28;20035;-78
2022/03/19 17:13:56;;;;;;;4.40;3.70;;;;;;;;;;12591535;28;20057;-78
2022/03/19 17:19:58;;;;;;;4.72;3.85;;;;;;;;;;12596081;28;20412;-79
2022/03/19 17:26:00;;;;;;;;;;;;;;;;;;12597309;28;20516;-76
2022/03/19 17:32:01;;;;;;;6.18;3.97;;;;;;;;;;12589943;28;20277;-76
2022/03/19 17:38:04;;;;;;;5.18;4.03;;;;;;;;;;12590157;28;20040;-76
2022/03/19 17:44:06;;;;;;;;;;;;;;;;;;12592104;28;20044;-76
2022/03/19 17:50:08;;;;;;;4.43;3.95;;;;;;;;;;12594236;28;20296;-79
2022/03/19 17:56:10;;;;;;;5.25;4.70;;;;;;;;;;12590348;28;20496;-78
2022/03/19 18:02:12;;;;;;;6.80;6.10;;;;;;;;;;12590788;28;20036;-78
2022/03/19 18:08:14;;;;;;;9.23;7.70;;;;;;;;;;12572807;28;20048;-79
2022/03/19 18:14:16;;;;;;;7.75;6.63;;;;;;;;;;12590624;28;20057;-79
2022/03/19 18:20:18;;;;;;;9.15;6.93;;;;;;;;;;12589021;28;20040;-79
2022/03/19 18:26:19;;;;;;;4.78;4.05;;;;;;;;;;12588634;28;20605;-79
2022/03/19 18:32:21;;;;;;;5.55;4.82;;;;;;;;;;12589989;28;20119;-78
2022/03/19 18:38:23;;;;;;;9.27;6.90;;;;;;;;;;12589726;28;20043;-79
2022/03/19 18:44:25;;;;;;;8.95;7.57;;;;;;;;;;12598161;28;20045;-78
2022/03/19 18:50:27;;;;;;;8.48;7.55;;;;;;;;;;12599173;28;20401;-79
2022/03/19 18:56:29;;;;;;;9.10;7.93;;;;;;;;;;12599938;28;20040;-76
2022/03/19 19:02:30;;;;;;;10.18;9.07;;;;;;;;;;12597141;28;20029;-76
2022/03/19 19:08:34;;;;;;;10.98;9.43;;;;;;;;;;12598813;28;20419;-76
2022/03/19 19:14:36;;;;;;;10.48;8.98;;;;;;;;;;12597933;28;20057;-76
2022/03/19 19:20:42;;;;;;;10.90;9.45;;;;;;;;;;12601410;28;20024;-79
2022/03/19 19:26:44;;;;;;;15.77;12.77;;;;;;;;;;12596925;28;20040;-79
2022/03/19 19:32:46;;;;;;;14.35;11.85;;;;;;;;;;12602036;28;20024;-80
2022/03/19 19:38:47;;;;;;;14.05;10.45;;;;;;;;;;12596898;28;20032;-79
2022/03/19 19:44:49;;;;;;;17.23;12.88;;;;;;;;;;12598378;28;20052;-80
2022/03/19 19:50:51;;;;;;;15.40;12.65;;;;;;;;;;12595224;28;20473;-76
2022/03/19 20:03:15;;;;;;;13.90;11.52;;;;;;;;;;12596841;28;20302;-76
2022/03/19 20:09:17;;;;;;;13.68;11.70;;;;;;;;;;12596822;28;20037;-76
2022/03/19 20:15:20;;;;;;;13.18;11.48;;;;;;;;;;12594965;28;20056;-76
2022/03/19 20:21:21;;;;;;;16.13;14.50;;;;;;;;;;12596463;28;20035;-76
2022/03/19 20:27:25;;;;;;;25.00;20.45;;;;;;;;;;12595141;28;20048;-76
2022/03/19 20:33:27;;;;;;;29.27;23.38;;;;;;;;;;12595968;28;20389;-75
2022/03/19 20:39:32;;;;;;;66.40;42.58;;;;;;;;;;12596645;28;20469;-75
2022/03/19 20:45:34;;;;;;;56.50;40.20;;;;;;;;;;12595832;28;20052;-75
2022/03/19 20:51:36;;;;;;;;;;;;;;;;;;12588699;28;20516;-75
2022/03/19 20:57:38;;;;;;;32.65;25.67;;;;;;;;;;12594915;28;19923;-76
2022/03/19 21:03:40;;;;;;;30.38;25.88;;;;;;;;;;12594830;28;20382;-75
2022/03/19 21:09:41;;;;;;;25.15;21.65;;;;;;;;;;12594567;28;20025;-76
2022/03/19 21:15:43;;;;;;;23.13;20.33;;;;;;;;;;12595827;28;20059;-75
2022/03/19 21:21:45;;;;;;;21.67;19.48;;;;;;;;;;12598641;28;20028;-78
2022/03/19 21:27:48;;;;;;;21.77;19.58;;;;;;;;;;12593583;28;20508;-79
2022/03/19 21:33:50;;;;;;;21.67;19.37;;;;;;;;;;12593170;28;20393;-78
2022/03/19 21:46:13;;;;;;;19.73;17.73;;;;;;;;;;12594404;28;20052;-78
2022/03/19 21:52:15;;;;;;;19.15;17.25;;;;;;;;;;12603631;28;20515;-76
2022/03/19 21:58:18;;;;;;;23.40;20.37;;;;;;;;;;12576171;28;20033;-75
2022/03/19 22:04:20;;;;;;;20.77;18.77;;;;;;;;;;12592492;28;20047;-75
2022/03/19 22:10:22;;;;;;;21.60;19.53;;;;;;;;;;12592754;28;20035;-75
2022/03/19 22:16:24;;;;;;;20.30;18.13;;;;;;;;;;12592082;28;20076;-75
2022/03/19 22:22:26;;;;;;;18.33;16.40;;;;;;;;;;12597303;28;20025;-75
2022/03/19 22:28:28;;;;;;;16.80;15.20;;;;;;;;;;12588873;28;20052;-77
2022/03/19 22:34:30;;;;;;;20.20;18.30;;;;;;;;;;12589368;28;20495;-78
2022/03/19 22:40:32;;;;;;;17.10;15.43;;;;;;;;;;12589599;28;20048;-79
2022/03/19 22:46:34;;;;;;;16.23;14.52;;;;;;;;;;12588544;28;20044;-79
2022/03/19 22:52:36;;;;;;;16.20;14.63;;;;;;;;;;12597684;28;20045;-75
2022/03/19 22:58:38;;;;;;;16.93;15.20;;;;;;;;;;12590288;28;20047;-75
2022/03/19 23:04:40;;;;;;;13.05;11.75;;;;;;;;;;12590118;28;20033;-79
2022/03/19 23:17:03;;;;;;;16.08;14.57;;;;;;;;;;12590134;28;20490;-79
2022/03/19 23:23:08;;;;;;;16.07;14.43;;;;;;;;;;12589744;28;20032;-79
2022/03/19 23:29:10;;;;;;;17.58;15.20;;;;;;;;;;12604152;28;20052;-79
2022/03/19 23:41:33;;;;;;;15.70;14.27;;;;;;;;;;12598092;28;20056;-79
2022/03/19 23:47:34;;;;;;;13.97;12.67;;;;;;;;;;12596304;28;20401;-79
2022/03/19 23:53:36;;;;;;;15.75;14.20;;;;;;;;;;12598132;28;20043;-79
2022/03/19 23:59:38;;;;;;;13.77;12.48;;;;;;;;;;12602826;28;20032;-77
